Time;durP1;ratioP1;P1;durP2;ratioP2;P2;SDS_P1;SDS_P2;PMS_P1;PMS_P2;Temp;Humidity;BMP_temperature;BMP_pressure;BME280_temperature;BME280_humidity;BME280_pressure;Samples;Min_cycle;Max_cycle;Signal;HPM_P1;HPM_P2
2021/12/10 00:01:29;;;;;;;263.63;155.82;;;21.50;89.50;;;;;;5072660;28;20024;-56
2021/12/10 00:03:59;;;;;;;222.88;130.05;;;21.60;88.40;;;;;;5071281;28;20040;-51
2021/12/10 00:06:36;;;;;;;241.18;143.32;;;21.60;86.80;;;;;;5071304;28;20032;-52
2021/12/10 00:09:14;;;;;;;164.98;96.80;;;21.60;88.10;;;;;;5072572;28;20313;-59
2021/12/10 00:11:49;;;;;;;200.77;114.78;;;21.70;86.30;;;;;;5072665;28;20039;-58
2021/12/10 00:14:18;;;;;;;197.25;110.68;;;21.80;85.90;;;;;;5071083;28;20027;-55
2021/12/10 00:16:46;;;;;;;177.55;104.43;;;21.90;86.60;;;;;;5072666;28;20040;-59
2021/12/10 00:19:22;;;;;;;195.63;113.90;;;21.90;84.50;;;;;;5070699;28;20081;-59
2021/12/10 00:21:50;;;;;;;202.73;119.78;;;21.90;85.30;;;;;;5071174;28;20025;-54
2021/12/10 00:24:21;;;;;;;178.00;105.88;;;22.00;86.70;;;;;;5072725;28;20035;-55
2021/12/10 00:26:48;;;;;;;173.63;101.22;;;22.00;86.50;;;;;;5072318;28;20029;-60
2021/12/10 00:29:18;;;;;;;184.43;107.57;;;21.90;85.90;;;;;;5072305;28;20025;-56
2021/12/10 00:31:53;;;;;;;132.13;75.50;;;21.90;86.40;;;;;;5072665;28;20017;-59
2021/12/10 00:34:30;;;;;;;166.55;97.80;;;21.90;81.90;;;;;;5072450;28;20020;-54
2021/12/10 00:37:03;;;;;;;142.95;83.10;;;21.90;86.20;;;;;;5072408;28;20028;-55
2021/12/10 00:39:38;;;;;;;137.40;76.43;;;21.90;84.30;;;;;;5072244;28;20123;-58
2021/12/10 00:42:13;;;;;;;142.18;85.28;;;21.90;84.10;;;;;;5072187;28;20021;-58
2021/12/10 00:44:41;;;;;;;125.80;77.00;;;21.90;84.90;;;;;;5072118;28;20408;-57
2021/12/10 00:47:08;;;;;;;150.73;82.32;;;21.90;84.20;;;;;;5072163;28;20108;-59
2021/12/10 00:49:37;;;;;;;155.70;87.18;;;21.90;85.90;;;;;;5072573;28;20036;-59
2021/12/10 00:52:08;;;;;;;152.85;87.20;;;21.90;86.70;;;;;;5072381;28;20019;-60
2021/12/10 00:54:36;;;;;;;147.15;87.32;;;21.80;87.10;;;;;;5071648;28;20059;-61
2021/12/10 00:57:06;;;;;;;154.25;89.22;;;21.70;87.70;;;;;;5072376;28;20024;-60
2021/12/10 00:59:34;;;;;;;143.15;87.85;;;21.70;87.90;;;;;;5072500;28;20540;-56
2021/12/10 01:02:02;;;;;;;133.20;76.72;;;21.60;88.20;;;;;;5071897;28;20479;-59
2021/12/10 01:04:34;;;;;;;125.82;76.20;;;21.60;88.30;;;;;;5072425;28;20031;-54
2021/12/10 01:07:06;;;;;;;123.85;73.80;;;21.50;88.60;;;;;;5072498;28;20044;-59
2021/12/10 01:09:34;;;;;;;;;;;21.40;88.70;;;;;;5073690;28;20021;-59
2021/12/10 01:12:10;;;;;;;110.30;68.47;;;21.40;89.00;;;;;;5076406;28;19934;-59
2021/12/10 01:26:11;;;;;;;117.70;69.95;;;21.00;90.20;;;;;;5075903;28;20075;-60
2021/12/10 01:28:41;;;;;;;110.35;68.75;;;21.00;90.40;;;;;;5075751;28;20028;-58
2021/12/10 01:31:10;;;;;;;110.40;64.05;;;20.90;90.50;;;;;;5075812;28;20032;-58
2021/12/10 01:33:37;;;;;;;112.45;66.45;;;20.90;90.70;;;;;;5076018;28;20020;-62
2021/12/10 01:36:08;;;;;;;107.28;62.92;;;20.80;90.70;;;;;;5075679;28;20349;-58
2021/12/10 01:38:45;;;;;;;108.63;65.30;;;20.80;90.80;;;;;;5075564;28;20124;-58
2021/12/10 01:41:17;;;;;;;110.90;62.83;;;20.70;90.90;;;;;;5075661;28;20024;-58
2021/12/10 01:43:47;;;;;;;107.50;62.75;;;20.70;91.00;;;;;;5075562;28;20016;-55
2021/12/10 01:46:24;;;;;;;104.40;61.00;;;20.60;91.10;;;;;;5073961;28;20181;-56
2021/12/10 01:48:55;;;;;;;102.57;62.42;;;20.60;91.20;;;;;;5075841;28;20047;-57
2021/12/10 01:51:29;;;;;;;98.03;59.97;;;20.60;91.30;;;;;;5075242;28;20371;-57
2021/12/10 01:54:02;;;;;;;100.38;60.60;;;20.50;91.40;;;;;;5073646;28;20043;-62
2021/12/10 01:56:32;;;;;;;102.00;60.75;;;20.50;91.40;;;;;;5074900;28;20024;-60
2021/12/10 01:59:01;;;;;;;101.47;60.03;;;20.50;91.40;;;;;;5074907;28;20041;-59
2021/12/10 02:01:38;;;;;;;99.00;58.05;;;20.40;91.50;;;;;;5075271;28;20039;-54
2021/12/10 02:04:07;;;;;;;99.65;58.80;;;20.40;91.50;;;;;;5075038;28;20479;-59
2021/12/10 02:06:35;;;;;;;101.00;58.03;;;20.40;91.70;;;;;;5075343;28;20016;-60
2021/12/10 02:09:05;;;;;;;96.32;57.65;;;20.30;91.70;;;;;;5074489;28;20175;-58
2021/12/10 02:11:32;;;;;;;100.88;58.03;;;20.30;91.80;;;;;;5075264;28;20025;-57
2021/12/10 02:13:59;;;;;;;92.05;58.13;;;20.30;92.20;;;;;;5074928;28;20433;-59
2021/12/10 02:16:27;;;;;;;95.20;57.33;;;20.30;91.90;;;;;;5075197;28;20027;-58
2021/12/10 02:18:55;;;;;;;95.32;55.30;;;20.30;92.00;;;;;;5075297;28;20475;-57
2021/12/10 02:21:25;;;;;;;92.45;58.38;;;20.20;92.00;;;;;;5074284;28;20055;-53
2021/12/10 02:23:59;;;;;;;90.30;55.15;;;20.20;92.00;;;;;;5074927;28;20024;-59
2021/12/10 02:26:42;;;;;;;94.40;55.50;;;20.20;92.20;;;;;;5075055;28;20021;-58
2021/12/10 02:29:10;;;;;;;88.18;52.50;;;20.20;92.20;;;;;;5073809;28;20021;-58
2021/12/10 02:31:39;;;;;;;93.55;53.13;;;20.10;92.30;;;;;;5074760;28;20028;-56
2021/12/10 02:34:08;;;;;;;86.20;52.00;;;20.10;92.30;;;;;;5074852;28;20482;-59
2021/12/10 02:36:42;;;;;;;79.57;49.97;;;20.10;92.30;;;;;;5074084;28;20025;-57
2021/12/10 02:39:15;;;;;;;82.07;48.90;;;20.10;92.40;;;;;;5074477;28;20041;-62
2021/12/10 02:41:43;;;;;;;79.15;47.78;;;20.10;92.40;;;;;;5074857;28;20029;-57
2021/12/10 02:44:13;;;;;;;70.03;44.67;;;20.10;92.50;;;;;;5074080;28;20032;-54
2021/12/10 02:46:41;;;;;;;71.57;43.92;;;20.10;92.50;;;;;;5074556;28;20439;-58
2021/12/10 02:49:11;;;;;;;71.20;44.13;;;20.10;92.50;;;;;;5074013;28;20025;-59
2021/12/10 02:51:40;;;;;;;72.07;41.25;;;20.10;92.50;;;;;;5072478;28;20024;-60
2021/12/10 02:54:10;;;;;;;68.82;41.58;;;20.10;92.60;;;;;;5073558;28;20491;-54
2021/12/10 02:56:39;;;;;;;62.53;38.72;;;20.10;92.50;;;;;;5073738;28;20047;-57
2021/12/10 02:59:07;;;;;;;62.38;37.25;;;20.10;92.60;;;;;;5070138;28;20536;-54
2021/12/10 03:01:42;;;;;;;64.55;39.13;;;20.10;92.60;;;;;;5073591;28;20020;-57
2021/12/10 03:04:10;;;;;;;63.22;37.00;;;20.10;92.50;;;;;;5073749;28;20024;-60
2021/12/10 03:06:44;;;;;;;61.50;37.10;;;20.10;92.60;;;;;;5073874;28;20029;-52
2021/12/10 03:09:13;;;;;;;56.63;35.88;;;20.10;92.60;;;;;;5074034;28;20037;-60
2021/12/10 03:11:48;;;;;;;59.80;35.03;;;20.10;92.50;;;;;;5073434;28;20021;-54
2021/12/10 03:14:19;;;;;;;60.42;34.83;;;20.10;92.50;;;;;;5073570;28;20039;-54
2021/12/10 03:16:48;;;;;;;57.63;34.47;;;20.10;92.50;;;;;;5074062;28;20439;-58
2021/12/10 03:19:16;;;;;;;56.33;34.42;;;20.20;92.50;;;;;;5072575;28;20032;-57
2021/12/10 03:21:45;;;;;;;55.72;34.65;;;20.10;92.50;;;;;;5073980;28;20020;-56
2021/12/10 03:24:16;;;;;;;57.67;33.58;;;20.10;92.40;;;;;;5073404;28;20055;-59
2021/12/10 03:26:45;;;;;;;55.90;34.97;;;20.10;92.50;;;;;;5073787;28;20020;-58
2021/12/10 03:29:13;;;;;;;55.38;35.00;;;20.10;92.50;;;;;;5073333;28;20028;-59
2021/12/10 03:31:40;;;;;;;56.50;33.67;;;20.10;92.50;;;;;;5073904;28;20418;-60
2021/12/10 03:34:08;;;;;;;58.35;34.72;;;20.20;92.50;;;;;;5072560;28;20059;-58
2021/12/10 03:36:36;;;;;;;52.38;34.58;;;20.10;92.50;;;;;;5073483;28;20365;-55
2021/12/10 03:39:05;;;;;;;51.33;33.08;;;20.10;92.70;;;;;;5071365;28;20033;-53
2021/12/10 03:41:33;;;;;;;57.08;33.58;;;20.10;92.50;;;;;;5073421;28;20028;-55
2021/12/10 03:44:01;;;;;;;58.35;33.92;;;20.10;92.50;;;;;;5073130;28;20051;-57
2021/12/10 03:46:28;;;;;;;52.63;33.80;;;20.20;92.50;;;;;;5072912;28;20379;-57
2021/12/10 03:48:56;;;;;;;51.28;32.90;;;20.10;92.50;;;;;;5072713;28;20020;-55
2021/12/10 03:51:28;;;;;;;50.42;30.70;;;20.10;92.50;;;;;;5073064;28;20028;-60
2021/12/10 03:54:07;;;;;;;49.50;32.65;;;20.10;92.50;;;;;;5089446;27;20409;-51
2021/12/10 03:56:38;;;;;;;50.22;30.88;;;20.20;92.50;;;;;;5104555;28;20040;-53
2021/12/10 03:59:09;;;;;;;49.97;30.90;;;20.10;92.40;;;;;;5089860;28;20046;-57
2021/12/10 04:01:40;;;;;;;48.00;30.00;;;20.20;92.40;;;;;;5089623;28;20098;-58
2021/12/10 04:04:14;;;;;;;48.30;30.55;;;20.10;92.50;;;;;;5089521;28;20071;-55
2021/12/10 04:06:42;;;;;;;43.97;28.88;;;20.20;92.40;;;;;;5089708;28;20029;-58
2021/12/10 04:09:10;;;;;;;43.15;29.88;;;20.10;92.40;;;;;;5089792;28;20031;-60
2021/12/10 04:11:38;;;;;;;45.42;28.02;;;20.10;92.40;;;;;;5089914;28;20035;-57
2021/12/10 04:14:05;;;;;;;48.38;29.90;;;20.20;92.40;;;;;;5089394;28;20051;-59
2021/12/10 04:16:34;;;;;;;41.17;25.85;;;20.20;92.40;;;;;;5089658;28;20078;-59
2021/12/10 04:19:05;;;;;;;44.40;27.15;;;20.20;92.40;;;;;;5089901;28;20047;-57
2021/12/10 04:21:39;;;;;;;38.75;26.42;;;20.20;92.40;;;;;;5090001;28;20489;-56
2021/12/10 04:24:11;;;;;;;40.00;25.88;;;20.20;92.50;;;;;;5089175;28;20056;-59
2021/12/10 04:26:39;;;;;;;38.88;25.27;;;20.20;92.50;;;;;;5089764;28;20059;-52
2021/12/10 04:29:07;;;;;;;42.13;26.00;;;20.20;92.50;;;;;;5088987;28;20021;-61
2021/12/10 04:31:34;;;;;;;39.50;24.88;;;20.20;92.50;;;;;;5089615;28;20079;-54
2021/12/10 04:34:03;;;;;;;38.00;24.15;;;20.20;92.50;;;;;;5088150;28;20028;-60
2021/12/10 04:36:31;;;;;;;36.30;22.45;;;20.20;92.50;;;;;;5089082;28;20031;-58
2021/12/10 04:38:59;;;;;;;35.85;23.77;;;20.20;92.40;;;;;;5088984;28;20033;-59
2021/12/10 04:41:26;;;;;;;35.33;23.10;;;20.30;92.30;;;;;;5089166;28;20025;-55
2021/12/10 04:43:54;;;;;;;35.65;22.45;;;20.30;92.30;;;;;;5088885;28;20060;-63
2021/12/10 04:46:22;;;;;;;35.53;22.50;;;20.30;92.30;;;;;;5089419;28;20024;-59
2021/12/10 04:49:05;;;;;;;36.58;23.40;;;20.30;92.20;;;;;;5089302;28;20028;-61
2021/12/10 04:51:42;;;;;;;33.67;22.40;;;20.30;92.50;;;;;;5088037;28;20038;-60
2021/12/10 04:54:11;;;;;;;36.08;23.27;;;20.30;92.20;;;;;;5088337;28;20648;-57
2021/12/10 04:56:40;;;;;;;32.13;22.73;;;20.30;92.20;;;;;;5088709;28;20020;-60
2021/12/10 04:59:10;;;;;;;37.08;23.17;;;20.30;92.20;;;;;;5088675;28;20028;-58
2021/12/10 05:01:38;;;;;;;32.38;22.65;;;20.30;92.20;;;;;;5088911;28;20505;-60
2021/12/10 05:04:08;;;;;;;40.95;21.85;;;20.30;92.20;;;;;;5082282;28;20454;-52
2021/12/10 05:06:36;;;;;;;32.17;22.08;;;20.30;92.10;;;;;;5074922;28;20020;-60
2021/12/10 05:09:07;;;;;;;36.20;21.35;;;20.30;92.20;;;;;;5075195;28;20099;-60
2021/12/10 05:11:35;;;;;;;32.30;22.52;;;20.30;92.10;;;;;;5074858;28;20028;-58
2021/12/10 05:14:05;;;;;;;30.40;21.27;;;20.30;92.10;;;;;;5074653;28;20041;-57
2021/12/10 05:16:38;;;;;;;33.55;21.65;;;20.30;92.10;;;;;;5074828;28;20024;-53
2021/12/10 05:19:06;;;;;;;33.03;20.38;;;20.30;92.10;;;;;;5074868;28;20027;-58
2021/12/10 05:21:35;;;;;;;28.42;20.85;;;20.30;92.10;;;;;;5074581;28;20028;-61
2021/12/10 05:24:07;;;;;;;30.38;20.25;;;20.40;92.10;;;;;;5074263;28;20540;-54
2021/12/10 05:26:36;;;;;;;32.92;20.08;;;20.30;92.10;;;;;;5074592;28;20041;-55
2021/12/10 05:29:06;;;;;;;27.60;18.33;;;20.40;92.10;;;;;;5074314;28;20036;-58
2021/12/10 05:31:35;;;;;;;27.25;19.08;;;20.40;92.10;;;;;;5074640;28;20020;-58
2021/12/10 05:34:03;;;;;;;28.60;17.67;;;20.40;92.10;;;;;;5074317;28;20090;-59
2021/12/10 05:36:31;;;;;;;26.15;18.05;;;20.40;92.00;;;;;;5074610;28;20021;-59
2021/12/10 05:38:58;;;;;;;21.95;16.33;;;20.40;92.00;;;;;;5074169;28;20032;-61
2021/12/10 05:41:26;;;;;;;20.33;13.90;;;20.40;92.00;;;;;;5074027;28;20112;-60
2021/12/10 05:43:53;;;;;;;28.42;17.77;;;20.40;92.00;;;;;;5074069;28;20043;-59
2021/12/10 05:46:20;;;;;;;26.00;16.10;;;20.40;92.00;;;;;;5074285;28;20036;-61
2021/12/10 05:48:48;;;;;;;24.30;16.35;;;20.50;91.90;;;;;;5074431;28;20028;-59
2021/12/10 05:51:15;;;;;;;21.73;15.52;;;20.50;91.70;;;;;;5073678;28;20479;-55
2021/12/10 05:53:44;;;;;;;23.80;16.25;;;20.50;91.70;;;;;;5073760;28;20052;-57
2021/12/10 05:56:11;;;;;;;26.23;17.83;;;20.50;91.80;;;;;;5073683;28;20397;-59
2021/12/10 05:58:39;;;;;;;23.15;16.02;;;20.60;91.70;;;;;;5070690;28;20487;-59
2021/12/10 06:01:12;;;;;;;23.20;15.48;;;20.60;91.60;;;;;;5072586;28;20535;-58
2021/12/10 06:03:51;;;;;;;25.63;16.27;;;20.60;91.40;;;;;;5073599;28;20123;-58
2021/12/10 06:06:20;;;;;;;24.38;16.63;;;20.60;91.30;;;;;;5074240;28;20471;-55
2021/12/10 06:08:47;;;;;;;22.15;15.73;;;20.60;91.40;;;;;;5073489;28;20032;-52
2021/12/10 06:11:17;;;;;;;22.05;15.25;;;20.60;91.30;;;;;;5073570;28;20036;-61
2021/12/10 06:13:45;;;;;;;24.95;16.48;;;20.60;91.20;;;;;;5073609;28;20048;-56
2021/12/10 06:16:16;;;;;;;22.58;15.15;;;20.70;91.20;;;;;;5072305;28;20032;-62
2021/12/10 06:18:44;;;;;;;23.58;15.93;;;20.70;91.20;;;;;;5073491;28;20028;-56
2021/12/10 06:21:12;;;;;;;22.98;14.65;;;20.70;91.20;;;;;;5073658;28;20543;-60
2021/12/10 06:23:41;;;;;;;24.10;14.52;;;20.70;91.10;;;;;;5073305;28;20036;-58
2021/12/10 06:26:08;;;;;;;21.30;14.88;;;20.70;91.10;;;;;;5073045;28;20468;-62
2021/12/10 06:28:36;;;;;;;18.73;13.38;;;20.70;91.10;;;;;;5073427;28;20028;-60
2021/12/10 06:31:05;;;;;;;18.80;13.27;;;20.70;91.00;;;;;;5073374;28;20039;-59
2021/12/10 06:33:33;;;;;;;21.60;13.82;;;20.70;91.00;;;;;;5073206;28;20032;-55
2021/12/10 06:36:03;;;;;;;20.15;13.85;;;20.70;91.00;;;;;;5072153;28;20056;-57
2021/12/10 06:38:31;;;;;;;18.10;13.27;;;20.70;91.00;;;;;;5072517;28;20029;-57
2021/12/10 06:40:59;;;;;;;22.05;14.27;;;20.70;91.00;;;;;;5072963;28;20017;-60
2021/12/10 06:43:27;;;;;;;20.10;13.40;;;20.70;91.00;;;;;;5072712;28;20104;-59
2021/12/10 06:45:55;;;;;;;19.23;13.63;;;20.70;91.00;;;;;;5072667;28;20135;-61
2021/12/10 06:48:26;;;;;;;19.58;12.57;;;20.70;91.00;;;;;;5073168;28;20040;-62
2021/12/10 06:50:57;;;;;;;18.65;12.90;;;20.70;90.90;;;;;;5073557;28;20063;-58
2021/12/10 06:53:27;;;;;;;18.10;12.00;;;20.70;90.80;;;;;;5071853;28;20044;-60
2021/12/10 06:55:55;;;;;;;17.02;11.70;;;20.80;90.90;;;;;;5071719;28;20020;-60
2021/12/10 06:58:23;;;;;;;17.50;12.15;;;20.70;90.80;;;;;;5073097;28;20063;-58
2021/12/10 07:00:59;;;;;;;18.65;12.60;;;20.70;90.80;;;;;;5071765;28;20020;-61
2021/12/10 07:03:29;;;;;;;18.52;12.27;;;20.80;90.90;;;;;;5072049;28;20025;-58
2021/12/10 07:05:58;;;;;;;15.43;11.50;;;20.70;90.80;;;;;;5073019;28;20031;-62
2021/12/10 07:08:28;;;;;;;18.00;12.00;;;20.70;90.80;;;;;;5072990;28;20032;-60
2021/12/10 07:10:56;;;;;;;15.10;10.77;;;20.70;90.80;;;;;;5072990;28;20051;-51
2021/12/10 07:13:24;;;;;;;18.13;12.07;;;20.70;90.90;;;;;;5072953;28;20040;-61
2021/12/10 07:15:53;;;;;;;16.63;11.20;;;20.70;90.80;;;;;;5073169;28;20462;-61
2021/12/10 07:18:22;;;;;;;16.23;10.55;;;20.70;90.80;;;;;;5071870;28;20033;-61
2021/12/10 07:20:52;;;;;;;17.95;11.38;;;20.70;90.80;;;;;;5072522;28;20130;-60
2021/12/10 07:23:22;;;;;;;15.50;10.48;;;20.70;91.00;;;;;;5072514;28;20020;-62
2021/12/10 07:25:51;;;;;;;13.90;10.40;;;20.70;91.00;;;;;;5072855;28;20029;-62
2021/12/10 07:28:18;;;;;;;17.38;11.13;;;20.70;91.00;;;;;;5072174;28;20352;-55
2021/12/10 07:30:47;;;;;;;15.55;10.85;;;20.70;91.00;;;;;;5072894;28;20028;-61
2021/12/10 07:33:16;;;;;;;14.85;11.25;;;20.70;91.10;;;;;;5072618;28;20530;-63
2021/12/10 07:35:46;;;;;;;15.63;10.65;;;20.60;91.10;;;;;;5072922;28;20485;-60
2021/12/10 07:38:13;;;;;;;14.63;10.55;;;20.60;91.20;;;;;;5071057;28;20024;-57
2021/12/10 07:40:41;;;;;;;15.98;11.00;;;20.60;91.50;;;;;;5072393;28;20395;-58
2021/12/10 07:43:10;;;;;;;13.48;9.88;;;20.50;91.30;;;;;;5072565;28;20100;-58
2021/12/10 07:45:43;;;;;;;16.42;10.40;;;20.50;91.30;;;;;;5072957;28;20040;-62
2021/12/10 07:48:12;;;;;;;15.18;10.00;;;20.50;91.40;;;;;;5072702;28;20109;-60
2021/12/10 07:50:53;;;;;;;15.00;9.88;;;20.50;91.40;;;;;;5072880;28;20428;-58
2021/12/10 07:53:25;;;;;;;13.10;9.25;;;20.50;91.40;;;;;;5072099;28;20052;-64
2021/12/10 07:55:53;;;;;;;15.43;9.68;;;20.50;91.50;;;;;;5072618;28;20150;-56
2021/12/10 07:58:20;;;;;;;15.43;10.23;;;20.50;91.50;;;;;;5072826;28;20418;-63
2021/12/10 08:00:49;;;;;;;17.45;10.82;;;20.50;91.50;;;;;;5072469;28;20031;-61
2021/12/10 08:03:17;;;;;;;14.73;10.05;;;20.40;91.50;;;;;;5072434;28;20466;-61
2021/12/10 08:05:46;;;;;;;15.82;9.98;;;20.40;91.60;;;;;;5072221;28;20016;-60
2021/12/10 08:08:14;;;;;;;13.23;9.95;;;20.40;91.60;;;;;;5072243;28;20024;-61
2021/12/10 08:10:43;;;;;;;14.73;10.38;;;20.40;91.70;;;;;;5072230;28;20025;-56
2021/12/10 08:13:10;;;;;;;14.65;9.77;;;20.40;91.60;;;;;;5072912;28;20422;-53
2021/12/10 08:15:37;;;;;;;13.82;9.32;;;20.40;91.70;;;;;;5071391;28;20116;-50
2021/12/10 08:18:06;;;;;;;13.07;9.32;;;20.40;91.60;;;;;;5072323;28;20039;-56
2021/12/10 08:20:35;;;;;;;13.10;8.75;;;20.30;91.70;;;;;;5072050;28;20085;-54
2021/12/10 08:23:03;;;;;;;15.07;9.80;;;20.30;91.70;;;;;;5071192;28;20064;-49
2021/12/10 08:25:31;;;;;;;16.38;9.35;;;20.30;91.70;;;;;;5072475;28;20429;-56
2021/12/10 08:28:00;;;;;;;11.15;8.55;;;20.30;91.70;;;;;;5072354;28;20016;-54
2021/12/10 08:30:28;;;;;;;11.93;8.90;;;20.30;91.70;;;;;;5072283;28;20117;-53
2021/12/10 08:32:57;;;;;;;11.00;8.27;;;20.30;91.70;;;;;;5072121;28;20031;-58
2021/12/10 08:35:29;;;;;;;10.45;8.48;;;20.30;91.70;;;;;;5071356;28;20025;-61
2021/12/10 08:37:57;;;;;;;;;;;20.30;91.70;;;;;;5072453;28;20035;-58
2021/12/10 08:40:31;;;;;;;15.00;8.95;;;20.30;91.70;;;;;;5075416;28;20283;-61
2021/12/10 08:42:58;;;;;;;9.90;7.90;;;20.20;91.70;;;;;;5075814;28;20525;-53
2021/12/10 08:45:28;;;;;;;11.82;8.48;;;20.20;91.70;;;;;;5074604;28;20029;-61
2021/12/10 08:47:56;;;;;;;10.68;7.47;;;20.20;91.70;;;;;;5075621;28;20449;-60
2021/12/10 08:50:26;;;;;;;12.25;7.47;;;20.20;91.70;;;;;;5075261;28;20498;-58
2021/12/10 08:53:00;;;;;;;11.63;7.95;;;20.20;91.70;;;;;;5075382;28;20487;-63
2021/12/10 08:55:30;;;;;;;10.68;7.72;;;20.20;91.60;;;;;;5075811;28;20025;-60
2021/12/10 08:57:58;;;;;;;9.95;6.80;;;20.20;91.60;;;;;;5075521;28;20021;-60
2021/12/10 09:00:26;;;;;;;11.25;7.40;;;20.20;91.60;;;;;;5072523;28;20062;-59
2021/12/10 09:02:56;;;;;;;10.43;6.97;;;20.10;91.60;;;;;;5075635;28;20033;-59
2021/12/10 09:05:24;;;;;;;13.13;8.18;;;20.10;91.60;;;;;;5074043;28;20036;-61
2021/12/10 09:07:52;;;;;;;12.38;7.53;;;20.20;91.70;;;;;;5075033;28;20029;-49
2021/12/10 09:10:24;;;;;;;9.75;7.15;;;20.10;91.70;;;;;;5075246;28;20081;-59
2021/12/10 09:12:51;;;;;;;;;;;20.10;91.70;;;;;;5075611;28;20044;-58
2021/12/10 09:15:22;;;;;;;11.82;7.30;;;20.10;91.70;;;;;;5075370;28;19911;-58
2021/12/10 09:17:51;;;;;;;8.45;6.82;;;20.10;91.70;;;;;;5074279;28;20031;-62
2021/12/10 09:20:31;;;;;;;7.40;5.80;;;20.10;91.70;;;;;;5075310;28;20020;-60
2021/12/10 09:22:59;;;;;;;9.43;6.22;;;20.10;91.60;;;;;;5075362;28;20024;-60
2021/12/10 09:25:27;;;;;;;9.75;6.28;;;20.10;91.60;;;;;;5075171;28;20028;-62
2021/12/10 09:27:56;;;;;;;9.65;6.45;;;20.10;91.70;;;;;;5075186;28;20106;-60
2021/12/10 09:30:25;;;;;;;9.27;6.40;;;20.10;91.60;;;;;;5075034;28;20029;-60
2021/12/10 09:32:53;;;;;;;7.53;6.25;;;20.00;91.70;;;;;;5074615;28;20039;-57
2021/12/10 09:35:24;;;;;;;8.40;6.45;;;20.00;91.70;;;;;;5074907;28;20395;-56
2021/12/10 09:37:52;;;;;;;12.13;6.70;;;20.00;91.60;;;;;;5074663;28;20029;-61
2021/12/10 09:40:31;;;;;;;7.90;6.18;;;20.00;91.70;;;;;;5074975;28;20024;-59
2021/12/10 09:43:00;;;;;;;7.88;5.63;;;20.00;91.60;;;;;;5075064;28;20047;-60
2021/12/10 09:45:30;;;;;;;9.98;5.90;;;20.00;91.70;;;;;;5074828;28;20028;-62
2021/12/10 09:47:58;;;;;;;12.98;6.60;;;20.00;91.70;;;;;;5073484;28;20020;-61
2021/12/10 09:50:32;;;;;;;7.72;5.28;;;20.00;91.60;;;;;;5074614;28;20028;-60
2021/12/10 09:53:00;;;;;;;7.22;5.63;;;20.00;91.60;;;;;;5074368;28;20131;-60
2021/12/10 09:55:28;;;;;;;9.40;6.00;;;20.00;91.60;;;;;;5074706;28;20016;-56
2021/12/10 09:57:56;;;;;;;6.68;5.03;;;20.00;91.60;;;;;;5074548;28;20442;-59
2021/12/10 10:00:33;;;;;;;8.70;5.40;;;20.00;91.60;;;;;;5074755;28;20048;-60
2021/12/10 10:03:01;;;;;;;10.45;6.03;;;20.00;91.60;;;;;;5074772;28;20025;-57
2021/12/10 10:05:32;;;;;;;9.35;6.10;;;19.90;91.50;;;;;;5074179;28;20013;-54
2021/12/10 10:08:06;;;;;;;7.35;5.35;;;19.90;91.60;;;;;;5073717;28;20025;-60
2021/12/10 10:10:34;;;;;;;6.63;5.25;;;20.00;91.50;;;;;;5074028;28;20429;-60
2021/12/10 10:13:02;;;;;;;6.00;4.70;;;19.90;91.50;;;;;;5074256;28;20475;-57
2021/12/10 10:15:35;;;;;;;6.95;4.80;;;19.90;91.50;;;;;;5073954;28;20050;-59
2021/12/10 10:18:07;;;;;;;7.80;5.43;;;19.90;91.50;;;;;;5073900;28;20036;-63
2021/12/10 10:20:39;;;;;;;7.07;5.05;;;19.90;91.50;;;;;;5074012;28;20036;-59
2021/12/10 10:23:07;;;;;;;6.70;4.85;;;19.90;91.80;;;;;;5073861;28;20479;-61
2021/12/10 10:25:36;;;;;;;7.32;4.32;;;19.90;91.50;;;;;;5073519;28;20025;-61
2021/12/10 10:28:06;;;;;;;5.65;4.15;;;19.90;91.40;;;;;;5073320;28;20491;-61
2021/12/10 10:30:52;;;;;;;9.52;4.80;;;19.90;91.40;;;;;;5073808;28;20024;-61
2021/12/10 10:33:20;;;;;;;6.60;4.47;;;19.90;91.40;;;;;;5074014;28;20028;-59
2021/12/10 10:35:52;;;;;;;5.78;4.38;;;19.90;91.70;;;;;;5073697;28;20021;-54
2021/12/10 10:38:20;;;;;;;5.95;4.63;;;19.90;91.40;;;;;;5073581;28;20025;-57
2021/12/10 10:40:54;;;;;;;5.93;4.38;;;19.90;91.50;;;;;;5073611;28;20052;-55
2021/12/10 10:43:24;;;;;;;5.93;4.10;;;19.80;91.40;;;;;;5073551;28;20031;-58
2021/12/10 10:45:52;;;;;;;6.88;4.22;;;19.90;91.40;;;;;;5073653;28;20086;-59
2021/12/10 10:48:21;;;;;;;6.32;4.53;;;19.90;91.40;;;;;;5073742;28;20056;-60
2021/12/10 10:50:51;;;;;;;7.80;4.03;;;19.80;91.40;;;;;;5072204;28;20471;-61
2021/12/10 10:53:27;;;;;;;4.38;3.95;;;19.80;91.60;;;;;;5071708;28;20406;-57
2021/12/10 10:56:05;;;;;;;5.43;4.00;;;19.80;91.30;;;;;;5071067;28;20028;-57
2021/12/10 10:58:50;;;;;;;4.72;3.35;;;19.80;91.30;;;;;;5073043;28;20107;-56
2021/12/10 11:01:37;;;;;;;5.53;3.83;;;19.80;91.30;;;;;;5073199;28;20036;-57
2021/12/10 11:04:18;;;;;;;4.90;3.80;;;19.80;91.30;;;;;;5073004;28;20062;-60
2021/12/10 11:06:49;;;;;;;5.25;3.58;;;19.80;91.30;;;;;;5073154;28;20024;-57
2021/12/10 11:09:28;;;;;;;5.65;4.00;;;19.70;91.20;;;;;;5073317;28;20060;-59
2021/12/10 11:12:08;;;;;;;5.35;3.45;;;19.70;91.20;;;;;;5071734;28;20028;-61
2021/12/10 11:14:41;;;;;;;4.65;3.22;;;19.80;91.30;;;;;;5072995;28;20031;-58
2021/12/10 11:17:10;;;;;;;5.20;3.55;;;19.70;91.30;;;;;;5073244;28;20107;-58
2021/12/10 11:19:37;;;;;;;5.63;3.50;;;19.70;91.20;;;;;;5073090;28;20383;-59
2021/12/10 11:22:16;;;;;;;4.20;3.20;;;19.70;91.20;;;;;;5072702;28;20483;-61
2021/12/10 11:25:12;;;;;;;4.97;3.35;;;19.70;91.20;;;;;;5072474;28;20024;-59
2021/12/10 11:27:42;;;;;;;4.13;3.10;;;19.70;91.20;;;;;;5072784;28;20379;-60
2021/12/10 11:30:20;;;;;;;3.97;3.53;;;19.70;91.10;;;;;;5073264;28;20024;-61
2021/12/10 11:32:51;;;;;;;3.75;3.05;;;19.70;91.20;;;;;;5073137;28;20067;-58
2021/12/10 11:35:21;;;;;;;4.82;3.22;;;19.70;91.20;;;;;;5073222;28;20074;-59
2021/12/10 11:38:09;;;;;;;4.18;2.83;;;19.70;91.10;;;;;;5072730;28;20032;-55
2021/12/10 11:40:38;;;;;;;6.15;3.17;;;19.70;91.10;;;;;;5072664;28;20459;-61
2021/12/10 11:49:06;;;;;;;3.65;2.40;;;19.70;91.10;;;;;;5072981;28;20484;-58
2021/12/10 11:51:47;;;;;;;3.90;2.85;;;19.60;91.10;;;;;;5072302;28;20587;-58
2021/12/10 11:54:37;;;;;;;2.67;2.47;;;19.60;91.10;;;;;;5072355;28;20044;-60
2021/12/10 11:57:15;;;;;;;2.97;2.47;;;19.60;91.10;;;;;;5072788;28;20044;-55
2021/12/10 11:59:52;;;;;;;5.95;2.90;;;19.60;91.10;;;;;;5068487;28;20494;-60
2021/12/10 12:02:21;;;;;;;3.33;2.72;;;19.60;91.10;;;;;;5070991;28;20033;-59
2021/12/10 12:04:59;;;;;;;3.70;2.53;;;19.60;91.10;;;;;;5072434;28;20487;-59
2021/12/10 12:07:40;;;;;;;3.17;2.25;;;19.60;91.10;;;;;;5070960;28;20029;-56
2021/12/10 12:10:26;;;;;;;2.95;2.20;;;19.60;91.10;;;;;;5072388;28;20152;-53
2021/12/10 12:15:54;;;;;;;4.70;2.53;;;19.60;91.00;;;;;;5076154;28;20024;-58
2021/12/10 12:18:35;;;;;;;4.07;2.45;;;19.50;91.00;;;;;;5076550;28;20050;-59
2021/12/10 12:27:12;;;;;;;4.05;2.33;;;19.50;91.00;;;;;;5076224;28;20364;-60
2021/12/10 12:29:45;;;;;;;3.97;2.55;;;19.50;91.00;;;;;;5076237;28;20527;-59
2021/12/10 12:32:22;;;;;;;2.97;2.20;;;19.60;91.00;;;;;;5076060;28;20132;-56
2021/12/10 12:34:50;;;;;;;2.90;2.33;;;19.50;91.00;;;;;;5076078;28;20078;-61
2021/12/10 12:37:20;;;;;;;3.05;2.15;;;19.50;91.00;;;;;;5076105;28;20108;-60
2021/12/10 12:39:49;;;;;;;2.88;2.05;;;19.50;90.90;;;;;;5075987;28;20095;-59
2021/12/10 12:42:26;;;;;;;3.00;1.90;;;19.50;91.00;;;;;;5075575;28;20054;-58
2021/12/10 12:45:02;;;;;;;2.65;2.20;;;19.50;90.90;;;;;;5076105;28;20025;-58
2021/12/10 12:47:38;;;;;;;3.20;1.80;;;19.50;91.00;;;;;;5075154;28;20383;-58
2021/12/10 12:50:21;;;;;;;3.10;2.05;;;19.50;90.90;;;;;;5075967;28;20511;-53
2021/12/10 12:53:01;;;;;;;2.33;2.13;;;19.50;90.90;;;;;;5075577;28;20110;-50
2021/12/10 12:55:37;;;;;;;2.35;1.83;;;19.50;90.90;;;;;;5075752;28;20056;-53
2021/12/10 12:58:13;;;;;;;2.42;1.70;;;19.50;90.90;;;;;;5074945;28;20025;-58
2021/12/10 13:00:47;;;;;;;2.33;1.67;;;19.50;90.90;;;;;;5075764;28;20203;-55
2021/12/10 13:03:20;;;;;;;4.68;1.40;;;19.50;90.80;;;;;;5075732;28;20028;-58
2021/12/10 13:05:55;;;;;;;;;;;19.50;90.90;;;;;;5075852;28;20111;-58
2021/12/10 13:08:31;;;;;;;2.63;1.70;;;19.50;90.80;;;;;;5075286;28;19911;-58
2021/12/10 13:11:15;;;;;;;2.50;1.55;;;19.50;90.80;;;;;;5075575;28;20020;-56
2021/12/10 13:13:48;;;;;;;2.85;1.90;;;19.50;90.80;;;;;;5075647;28;20078;-58
2021/12/10 13:16:37;;;;;;;2.65;1.60;;;19.50;90.80;;;;;;5064266;28;20588;-53
2021/12/10 13:19:08;;;;;;;3.40;1.70;;;19.40;90.70;;;;;;5069333;28;20040;-55